Enter the Airport ICAO Code

Search by Airport or City

Current Weather

SARI | Cataratas del Iguaz˙ International Airport

Puerto Iguaz˙,áMisiones, Argentina

Last Update 20 Minutes Ago

Partly Cloudy Sky

Temperature of 27 ║C

Light Winds from East

Temperature

27 ║C

Dew Point Temperature

23 ║C

Relative Humidity

78.89 %

Wind Direction

East (070║, Ranging from 040║ to 100║)

Wind Velocity

6 km/h (03 kt)

Gusts

None

Visibility

Greater than 10 Kilometers

Sea Level Pressure

1012 hPa (Hectopascals)

Layers of Clouds

5% to 30% of Sky Covered from 1372 mts (4500 ft) Above Ground Level.

30% to 60% of Sky Covered from 2438 mts (8000 ft) Above Ground Level.

METAR SARI 290000Z 07003KT 040V100 9999 FEW045 SCT080 27/23 Q1012 RMK PP000

Weather Forecast

SARI | Cataratas del Iguaz˙ International Airport

Puerto Iguaz˙,áMisiones, Argentina

Forecast valid for the next 24 Hours

From now on it is expected:

Partly Cloudy Sky

Light to Moderate Winds from East

In 15 to 17 hours it is expected the begining of:

Mostly Cloudy Sky

In 18 hours it is expected the begining of 6 hours with intermittent periods of:

Thunderstorm with Rain

Maximum Temperature

32 ║C in 19 Hours

Minimum Temperature

19 ║C in 9 Hours

TAF SARI 282300Z 2900/2924 07005KT 9999 SCT035 TX32/2919Z TN19/2909Z PROB40 2908/2911 1500 BR BECMG 2915/2917 BKN030 FEW045TCU PROB30 TEMPO 2918/2924 5000 TSRA OVC025 FEW050CB